createdAt,value
2023-05-08T00:00:22.778Z,1.70
2023-05-08T00:03:14.201Z,2.30
2023-05-08T00:05:45.442Z,2.50
2023-05-08T00:08:16.965Z,1.90
2023-05-08T00:13:17.979Z,2.30
2023-05-08T00:18:18.941Z,2.10
2023-05-08T00:20:49.976Z,3.10
2023-05-08T00:25:50.546Z,1.90
2023-05-08T00:30:51.080Z,2.00
2023-05-08T00:35:51.575Z,1.90
2023-05-08T00:38:22.734Z,1.90
2023-05-08T00:40:53.863Z,2.10
2023-05-08T00:43:28.086Z,2.00
2023-05-08T00:46:01.202Z,2.70
2023-05-08T00:48:35.156Z,1.90
2023-05-08T00:51:09.634Z,2.30
2023-05-08T00:53:43.301Z,2.10
2023-05-08T00:56:16.914Z,1.90
2023-05-08T00:58:48.299Z,1.70
2023-05-08T01:01:19.910Z,1.90
2023-05-08T01:03:51.271Z,2.10
2023-05-08T01:06:22.325Z,1.80
2023-05-08T01:08:53.363Z,2.10
2023-05-08T01:11:30.749Z,2.30
2023-05-08T01:14:12.643Z,2.00
2023-05-08T01:17:11.858Z,2.00
2023-05-08T01:20:10.157Z,1.90
2023-05-08T01:23:03.622Z,2.00
2023-05-08T01:26:03.745Z,1.50
2023-05-08T01:29:14.459Z,2.10
2023-05-08T01:32:07.217Z,2.10
2023-05-08T01:34:45.892Z,1.50
2023-05-08T01:37:21.337Z,1.40
2023-05-08T01:40:02.258Z,1.90
2023-05-08T01:42:42.531Z,1.50
2023-05-08T01:45:20.037Z,1.70
2023-05-08T01:48:02.193Z,2.00
2023-05-08T01:50:37.895Z,1.70
2023-05-08T01:53:14.631Z,1.30
2023-05-08T01:55:48.659Z,1.80
2023-05-08T01:58:20.860Z,2.00
2023-05-08T02:00:52.879Z,2.00
2023-05-08T02:03:26.365Z,2.20
2023-05-08T02:05:58.909Z,2.20
2023-05-08T02:08:33.318Z,1.50
2023-05-08T02:11:06.297Z,1.80
2023-05-08T02:13:38.408Z,2.00
2023-05-08T02:16:12.148Z,1.60
2023-05-08T02:18:50.991Z,2.00
2023-05-08T02:21:23.582Z,1.40
2023-05-08T02:23:55.543Z,1.90
2023-05-08T02:26:28.705Z,1.60
2023-05-08T02:29:01.595Z,1.90
2023-05-08T02:31:33.167Z,1.80
2023-05-08T02:34:06.059Z,1.20
2023-05-08T02:36:39.142Z,1.40
2023-05-08T02:39:13.037Z,2.10
2023-05-08T02:41:44.547Z,1.70
2023-05-08T02:44:17.128Z,1.50
2023-05-08T02:46:54.381Z,1.30
2023-05-08T02:49:33.348Z,1.80
2023-05-08T02:52:10.187Z,1.10
2023-05-08T02:54:44.575Z,1.80
2023-05-08T02:57:24.249Z,1.70
2023-05-08T03:00:02.084Z,1.60
2023-05-08T03:02:40.925Z,1.50
2023-05-08T03:05:18.140Z,1.70
2023-05-08T03:07:52.284Z,1.40
2023-05-08T03:10:29.560Z,1.40
2023-05-08T03:13:03.930Z,1.50
2023-05-08T03:15:43.175Z,1.70
2023-05-08T03:18:19.061Z,1.80
2023-05-08T03:20:54.016Z,1.90
2023-05-08T03:23:27.556Z,1.70
2023-05-08T03:26:02.169Z,1.40
2023-05-08T03:28:36.775Z,1.70
2023-05-08T03:31:08.630Z,1.60
2023-05-08T03:33:43.105Z,1.30
2023-05-08T03:36:14.743Z,1.90
2023-05-08T03:38:46.030Z,1.40
2023-05-08T03:41:17.123Z,1.10
2023-05-08T03:43:49.203Z,1.60
2023-05-08T03:46:20.991Z,1.70
2023-05-08T03:48:52.947Z,1.60
2023-05-08T03:51:24.956Z,1.50
2023-05-08T03:53:56.140Z,1.50
2023-05-08T03:56:27.389Z,1.70
2023-05-08T03:59:09.317Z,1.70
2023-05-08T04:01:49.872Z,2.00
2023-05-08T04:04:27.098Z,1.60
2023-05-08T04:07:09.177Z,1.60
2023-05-08T04:09:45.266Z,1.80
2023-05-08T04:12:21.958Z,1.60
2023-05-08T04:14:57.364Z,1.40
2023-05-08T04:17:40.561Z,1.40
2023-05-08T04:20:16.356Z,2.20
2023-05-08T04:22:48.641Z,1.70
2023-05-08T04:25:22.303Z,2.20
2023-05-08T04:27:56.176Z,2.30
2023-05-08T04:30:27.929Z,2.10
2023-05-08T04:33:00.384Z,1.60
2023-05-08T04:35:32.254Z,2.20
2023-05-08T04:38:03.569Z,1.50
2023-05-08T04:40:34.857Z,2.00
2023-05-08T04:43:05.921Z,1.30
2023-05-08T04:45:36.962Z,2.00
2023-05-08T04:48:09.245Z,1.40
2023-05-08T04:50:40.842Z,2.20
2023-05-08T04:53:11.730Z,1.60
2023-05-08T04:55:43.034Z,1.90
2023-05-08T04:58:14.829Z,2.00
2023-05-08T05:00:46.079Z,2.00
2023-05-08T05:03:17.469Z,2.10
2023-05-08T05:05:48.360Z,1.80
2023-05-08T05:08:19.265Z,1.60
2023-05-08T05:10:50.380Z,2.10
2023-05-08T05:13:21.975Z,2.10
2023-05-08T05:15:54.487Z,2.30
2023-05-08T05:18:25.471Z,2.00
2023-05-08T05:20:58.680Z,1.70
2023-05-08T05:23:29.550Z,1.90
2023-05-08T05:28:30.158Z,2.40
2023-05-08T05:33:30.748Z,2.20
2023-05-08T05:36:01.683Z,2.60
2023-05-08T05:41:02.193Z,2.00
2023-05-08T05:43:33.621Z,2.60
2023-05-08T05:46:09.414Z,2.70
2023-05-08T05:48:40.740Z,2.40
2023-05-08T05:51:12.023Z,1.90
2023-05-08T05:53:43.975Z,1.90
2023-05-08T05:56:14.929Z,2.40
2023-05-08T05:58:45.950Z,2.30
2023-05-08T06:01:17.229Z,2.10
2023-05-08T06:06:17.670Z,1.50
2023-05-08T06:08:49.089Z,1.90
2023-05-08T06:13:50.584Z,1.60
2023-05-08T06:16:23.275Z,1.90
2023-05-08T06:18:54.638Z,1.90
2023-05-08T06:21:25.741Z,2.20
2023-05-08T06:23:56.881Z,1.80
2023-05-08T06:26:27.974Z,2.20
2023-05-08T06:31:28.683Z,1.30
2023-05-08T06:34:01.625Z,1.90
2023-05-08T06:36:32.779Z,2.00
2023-05-08T06:39:05.215Z,1.60
2023-05-08T06:41:36.949Z,1.70
2023-05-08T06:44:08.037Z,1.70
2023-05-08T06:46:39.846Z,2.00
2023-05-08T06:49:10.754Z,1.20
2023-05-08T06:51:41.986Z,2.10
2023-05-08T06:54:12.945Z,1.80
2023-05-08T06:56:44.307Z,2.10
2023-05-08T06:59:15.348Z,1.40
2023-05-08T07:01:46.342Z,1.60
2023-05-08T07:04:17.357Z,1.50
2023-05-08T07:06:49.071Z,1.80
2023-05-08T07:09:20.112Z,1.80
2023-05-08T07:11:51.313Z,1.60
2023-05-08T07:14:22.836Z,1.20
2023-05-08T07:16:53.746Z,1.20
2023-05-08T07:19:25.089Z,1.30
2023-05-08T07:21:56.294Z,1.50
2023-05-08T07:24:27.679Z,2.00
2023-05-08T07:29:28.656Z,1.20
2023-05-08T07:32:00.116Z,1.60
2023-05-08T07:34:31.343Z,1.20
2023-05-08T07:42:02.128Z,1.00
2023-05-08T07:44:43.666Z,1.20
2023-05-08T07:47:24.729Z,1.20
2023-05-08T07:49:55.978Z,1.30
2023-05-08T07:52:27.693Z,1.20
2023-05-08T07:54:59.421Z,1.00
2023-05-08T07:57:36.912Z,1.10
2023-05-08T08:00:11.661Z,1.00
2023-05-08T08:02:45.874Z,1.20
2023-05-08T08:05:17.283Z,1.00
2023-05-08T08:07:48.491Z,1.30
2023-05-08T08:10:19.351Z,1.10
2023-05-08T08:12:50.178Z,1.00
2023-05-08T08:15:21.907Z,0.90
2023-05-08T08:17:52.989Z,0.80
2023-05-08T08:20:24.311Z,0.80
2023-05-08T08:22:58.942Z,1.00
2023-05-08T08:25:30.787Z,0.90
2023-05-08T08:28:02.180Z,1.00
2023-05-08T08:30:33.409Z,1.10
2023-05-08T08:33:06.378Z,1.10
2023-05-08T08:35:38.230Z,1.50
2023-05-08T08:38:09.261Z,1.20
2023-05-08T08:40:43.494Z,1.10
2023-05-08T08:43:14.911Z,0.80
2023-05-08T08:45:46.050Z,1.00
2023-05-08T08:48:17.925Z,0.70
2023-05-08T08:50:52.537Z,0.70
2023-05-08T08:53:33.412Z,0.80
2023-05-08T08:56:07.120Z,0.60
2023-05-08T08:58:46.013Z,0.80
2023-05-08T09:01:20.627Z,0.80
2023-05-08T09:03:52.170Z,0.70
2023-05-08T09:06:23.804Z,0.70
2023-05-08T09:08:58.552Z,0.80
2023-05-08T09:11:30.200Z,0.90
2023-05-08T09:14:01.809Z,0.80
2023-05-08T09:16:33.225Z,1.00
2023-05-08T09:19:05.093Z,0.90
2023-05-08T09:21:37.214Z,1.00
2023-05-08T09:24:10.009Z,1.00
2023-05-08T09:26:42.649Z,0.80
2023-05-08T09:29:15.918Z,0.70
2023-05-08T09:31:50.358Z,0.90
2023-05-08T09:34:28.929Z,0.80
2023-05-08T09:37:14.332Z,1.00
2023-05-08T09:39:50.315Z,0.70
2023-05-08T09:42:23.199Z,1.10
2023-05-08T09:44:55.339Z,1.70
2023-05-08T09:47:27.021Z,1.20
2023-05-08T09:50:02.405Z,1.00
2023-05-08T09:52:34.507Z,0.80
2023-05-08T09:55:08.067Z,0.60
2023-05-08T09:57:41.072Z,1.00
2023-05-08T10:00:14.671Z,1.30
2023-05-08T10:02:58.192Z,0.60
2023-05-08T10:05:32.214Z,1.00
2023-05-08T10:08:21.666Z,1.00
2023-05-08T10:10:53.426Z,0.90
2023-05-08T10:13:26.332Z,0.90
2023-05-08T10:15:58.126Z,1.20
2023-05-08T10:18:36.363Z,1.20
2023-05-08T10:21:10.137Z,1.70
2023-05-08T10:23:43.501Z,1.10
2023-05-08T10:26:20.361Z,1.10
2023-05-08T10:28:57.969Z,1.10
2023-05-08T10:31:32.470Z,1.10
2023-05-08T10:34:04.159Z,1.20
2023-05-08T10:36:36.885Z,1.10
2023-05-08T10:39:08.337Z,1.10
2023-05-08T10:41:41.268Z,1.00
2023-05-08T10:44:12.970Z,1.00
2023-05-08T10:46:51.432Z,0.80
2023-05-08T10:49:32.881Z,1.00
2023-05-08T10:52:17.413Z,1.00
2023-05-08T10:55:24.443Z,1.00
2023-05-08T10:58:15.039Z,1.30
2023-05-08T11:01:19.775Z,1.20
2023-05-08T11:03:51.970Z,0.70
2023-05-08T11:06:50.044Z,1.00
2023-05-08T11:09:28.997Z,1.10
2023-05-08T11:12:25.341Z,1.00
2023-05-08T11:15:02.974Z,1.10
2023-05-08T11:17:34.779Z,1.40
2023-05-08T11:20:07.674Z,1.40
2023-05-08T11:22:39.517Z,0.90
2023-05-08T11:25:14.722Z,1.00
2023-05-08T11:28:13.996Z,1.80
2023-05-08T11:30:47.344Z,1.40
2023-05-08T11:33:21.378Z,1.60
2023-05-08T11:35:55.342Z,1.50
2023-05-08T11:38:32.526Z,1.60
2023-05-08T11:41:05.339Z,1.40
2023-05-08T11:43:50.914Z,1.10
2023-05-08T11:46:22.917Z,1.60
2023-05-08T11:49:05.096Z,1.50
2023-05-08T11:51:56.464Z,1.60
2023-05-08T11:54:32.995Z,1.70
2023-05-08T11:57:07.397Z,1.50
2023-05-08T11:59:44.002Z,1.40
2023-05-08T12:02:15.410Z,2.20
2023-05-08T12:04:49.850Z,1.60
2023-05-08T12:07:22.223Z,1.30
2023-05-08T12:09:53.378Z,1.10
2023-05-08T12:12:24.338Z,1.20
2023-05-08T12:14:55.338Z,1.70
2023-05-08T12:17:26.679Z,1.50
2023-05-08T12:20:04.057Z,1.80
2023-05-08T12:22:35.333Z,1.20
2023-05-08T12:25:08.213Z,1.30
2023-05-08T12:27:40.453Z,1.50
2023-05-08T12:30:14.266Z,1.50
2023-05-08T12:32:45.878Z,1.60
2023-05-08T12:35:18.229Z,1.70
2023-05-08T12:37:49.275Z,1.40
2023-05-08T12:40:31.571Z,2.00
2023-05-08T12:43:05.069Z,1.60
2023-05-08T12:45:39.283Z,1.70
2023-05-08T12:48:12.129Z,1.50
2023-05-08T12:50:46.151Z,1.80
2023-05-08T12:53:20.704Z,1.80
2023-05-08T12:55:57.165Z,1.40
2023-05-08T12:58:29.967Z,1.20
2023-05-08T13:01:10.239Z,1.70
2023-05-08T13:03:42.425Z,1.60
2023-05-08T13:06:25.519Z,1.20
2023-05-08T13:08:57.174Z,1.70
2023-05-08T13:11:34.807Z,1.80
2023-05-08T13:14:06.001Z,1.70
2023-05-08T13:16:47.741Z,1.30
2023-05-08T13:19:19.107Z,1.50
2023-05-08T13:21:50.289Z,1.60
2023-05-08T13:24:21.549Z,1.40
2023-05-08T13:26:52.732Z,1.40
2023-05-08T13:29:24.324Z,1.90
2023-05-08T13:31:55.279Z,1.70
2023-05-08T13:34:26.559Z,1.70
2023-05-08T13:36:57.564Z,1.30
2023-05-08T13:39:29.190Z,1.90
2023-05-08T13:42:00.197Z,1.50
2023-05-08T13:44:31.302Z,1.70
2023-05-08T13:47:02.326Z,1.30
2023-05-08T13:49:34.055Z,1.60
2023-05-08T13:52:05.351Z,1.90
2023-05-08T13:54:36.456Z,1.90
2023-05-08T13:57:08.172Z,1.40
2023-05-08T13:59:39.324Z,1.80
2023-05-08T14:02:10.391Z,1.60
2023-05-08T14:04:50.736Z,1.40
2023-05-08T14:07:21.754Z,1.40
2023-05-08T14:09:52.825Z,1.50
2023-05-08T14:12:23.837Z,1.70
2023-05-08T14:14:54.992Z,1.50
2023-05-08T14:17:25.942Z,1.30
2023-05-08T14:19:57.219Z,1.50
2023-05-08T14:22:28.020Z,1.10
2023-05-08T14:24:59.013Z,1.90
2023-05-08T14:27:30.200Z,1.40
2023-05-08T14:30:01.458Z,1.10
2023-05-08T14:32:35.490Z,1.40
2023-05-08T14:35:07.015Z,1.50
2023-05-08T14:37:38.016Z,1.50
2023-05-08T14:40:10.877Z,1.70
2023-05-08T14:42:41.832Z,1.50
2023-05-08T14:45:14.224Z,1.80
2023-05-08T14:47:45.539Z,1.80
2023-05-08T14:50:16.689Z,1.50
2023-05-08T14:52:48.353Z,1.60
2023-05-08T14:55:21.250Z,1.30
2023-05-08T14:57:52.882Z,1.60
2023-05-08T15:00:27.014Z,1.30
2023-05-08T15:02:58.330Z,1.50
2023-05-08T15:05:29.730Z,2.00
2023-05-08T15:08:02.690Z,1.70
2023-05-08T15:10:34.194Z,1.70
2023-05-08T15:13:05.471Z,1.60
2023-05-08T15:15:36.581Z,1.90
2023-05-08T15:18:07.894Z,1.80
2023-05-08T15:20:39.163Z,2.10
2023-05-08T15:23:10.119Z,1.30
2023-05-08T15:25:41.124Z,1.90
2023-05-08T15:28:12.767Z,1.50
2023-05-08T15:30:46.176Z,2.50
2023-05-08T15:33:17.817Z,2.00
2023-05-08T15:35:49.187Z,2.00
2023-05-08T15:38:20.132Z,2.20
2023-05-08T15:40:51.189Z,2.00
2023-05-08T15:43:22.251Z,1.80
2023-05-08T15:45:53.277Z,1.80
2023-05-08T15:48:24.485Z,1.80
2023-05-08T15:50:56.068Z,1.70
2023-05-08T15:53:27.212Z,1.70
2023-05-08T15:55:58.146Z,1.90
2023-05-08T15:58:29.108Z,2.40
2023-05-08T16:01:00.375Z,2.00
2023-05-08T16:03:31.756Z,1.90
2023-05-08T16:06:03.188Z,1.70
2023-05-08T16:08:34.339Z,2.00
2023-05-08T16:11:05.528Z,3.00
2023-05-08T16:13:36.670Z,1.90
2023-05-08T16:16:08.348Z,2.40
2023-05-08T16:18:39.366Z,1.70
2023-05-08T16:21:13.290Z,2.10
2023-05-08T16:23:44.440Z,1.60
2023-05-08T16:26:16.673Z,1.40
2023-05-08T16:28:49.950Z,1.90
2023-05-08T16:31:21.081Z,1.70
2023-05-08T16:33:52.036Z,1.60
2023-05-08T16:36:23.123Z,1.50
2023-05-08T16:38:54.239Z,1.60
2023-05-08T16:41:26.473Z,1.40
2023-05-08T16:43:57.540Z,1.20
2023-05-08T16:46:30.430Z,1.70
2023-05-08T16:49:01.719Z,1.70
2023-05-08T16:51:33.071Z,1.60
2023-05-08T16:54:04.171Z,1.40
2023-05-08T16:56:35.642Z,1.70
2023-05-08T16:59:07.102Z,1.90
2023-05-08T17:01:38.249Z,1.70
2023-05-08T17:04:09.691Z,1.60
2023-05-08T17:06:41.500Z,1.70
2023-05-08T17:09:12.658Z,1.70
2023-05-08T17:11:43.768Z,1.70
2023-05-08T17:14:14.738Z,1.90
2023-05-08T17:16:45.710Z,1.70
2023-05-08T17:19:16.845Z,1.70
2023-05-08T17:21:48.106Z,1.40
2023-05-08T17:24:19.694Z,2.00
2023-05-08T17:26:50.793Z,1.90
2023-05-08T17:29:21.723Z,2.20
2023-05-08T17:31:52.921Z,2.40
2023-05-08T17:34:24.473Z,1.70
2023-05-08T17:36:55.822Z,3.20
2023-05-08T17:39:27.453Z,1.60
2023-05-08T17:41:58.496Z,2.20
2023-05-08T17:44:29.520Z,2.30
2023-05-08T17:47:00.549Z,2.20
2023-05-08T17:49:31.804Z,2.00
2023-05-08T17:52:03.608Z,2.30
2023-05-08T17:54:34.956Z,2.40
2023-05-08T17:57:06.674Z,1.70
2023-05-08T17:59:37.846Z,2.30
2023-05-08T18:02:09.127Z,2.20
2023-05-08T18:04:40.437Z,2.40
2023-05-08T18:07:11.393Z,2.00
2023-05-08T18:09:42.802Z,2.10
2023-05-08T18:12:13.849Z,2.10
2023-05-08T18:14:45.429Z,2.20
2023-05-08T18:17:19.302Z,2.70
2023-05-08T18:19:50.645Z,2.20
2023-05-08T18:22:21.919Z,2.20
2023-05-08T18:24:54.414Z,2.10
2023-05-08T18:27:26.571Z,2.40
2023-05-08T18:29:58.237Z,2.10
2023-05-08T18:32:29.505Z,2.10
2023-05-08T18:35:00.640Z,2.40
2023-05-08T18:37:31.707Z,2.10
2023-05-08T18:40:03.596Z,2.50
2023-05-08T18:45:06.301Z,2.20
2023-05-08T18:47:37.434Z,2.20
2023-05-08T18:50:10.493Z,1.90
2023-05-08T18:52:41.546Z,2.40
2023-05-08T18:57:42.468Z,2.20
2023-05-08T19:02:45.148Z,2.00
2023-05-08T19:05:16.245Z,2.90
2023-05-08T19:07:47.349Z,2.50
2023-05-08T19:10:18.470Z,2.40
2023-05-08T19:12:50.910Z,2.50
2023-05-08T19:15:22.382Z,1.90
2023-05-08T19:17:53.448Z,2.30
2023-05-08T19:20:24.932Z,2.20
2023-05-08T19:22:56.139Z,1.50
2023-05-08T19:25:27.628Z,2.00
2023-05-08T19:27:58.812Z,2.40
2023-05-08T19:32:59.192Z,2.30
2023-05-08T19:37:59.716Z,1.90
2023-05-08T19:40:30.953Z,2.40
2023-05-08T19:43:01.947Z,2.00
2023-05-08T19:45:32.968Z,1.80
2023-05-08T19:48:08.141Z,2.40
2023-05-08T19:50:44.681Z,1.90
2023-05-08T19:53:17.288Z,1.80
2023-05-08T19:55:49.453Z,1.90
2023-05-08T19:58:20.722Z,1.90
2023-05-08T20:00:52.092Z,2.00
2023-05-08T20:03:23.213Z,2.40
2023-05-08T20:05:54.749Z,1.80
2023-05-08T20:08:25.851Z,1.90
2023-05-08T20:10:58.013Z,2.00
2023-05-08T20:13:29.369Z,1.90
2023-05-08T20:16:00.749Z,2.10
2023-05-08T20:21:01.540Z,1.50
2023-05-08T20:23:33.050Z,2.20
2023-05-08T20:26:05.290Z,2.40
2023-05-08T20:28:37.153Z,1.80
2023-05-08T20:31:08.158Z,2.20
2023-05-08T20:33:39.410Z,2.40
2023-05-08T20:38:39.878Z,2.20
2023-05-08T20:43:40.627Z,2.30
2023-05-08T20:46:11.808Z,2.00
2023-05-08T20:48:43.564Z,1.70
2023-05-08T20:51:15.940Z,2.10
2023-05-08T20:53:47.605Z,2.20
2023-05-08T20:56:21.774Z,2.00
2023-05-08T20:58:53.242Z,2.10
2023-05-08T21:01:24.431Z,2.60
2023-05-08T21:03:55.541Z,2.20
2023-05-08T21:08:57.855Z,2.10
2023-05-08T21:11:28.975Z,2.10
2023-05-08T21:14:00.226Z,1.90
2023-05-08T21:16:31.215Z,1.70
2023-05-08T21:21:31.808Z,1.90
2023-05-08T21:24:03.069Z,2.00
2023-05-08T21:26:33.993Z,1.90
2023-05-08T21:31:36.317Z,1.70
2023-05-08T21:34:08.044Z,1.90
2023-05-08T21:36:39.191Z,1.80
2023-05-08T21:41:40.206Z,1.80
2023-05-08T21:46:42.962Z,2.10
2023-05-08T21:49:14.349Z,1.60
2023-05-08T21:51:45.892Z,1.40
2023-05-08T21:54:17.191Z,1.50
2023-05-08T21:56:48.841Z,1.80
2023-05-08T22:01:49.435Z,1.90
2023-05-08T22:04:20.840Z,1.80
2023-05-08T22:06:52.003Z,2.00
2023-05-08T22:09:22.972Z,1.40
2023-05-08T22:11:54.103Z,2.30
2023-05-08T22:14:25.395Z,2.50
2023-05-08T22:16:56.460Z,2.10
2023-05-08T22:19:28.227Z,1.90
2023-05-08T22:21:59.407Z,1.60
2023-05-08T22:24:30.379Z,1.60
2023-05-08T22:27:01.306Z,1.30
2023-05-08T22:29:32.909Z,1.60
2023-05-08T22:32:04.121Z,2.40
2023-05-08T22:37:04.984Z,2.10
2023-05-08T22:42:06.439Z,2.40
2023-05-08T22:44:37.855Z,6.80
2023-05-08T22:47:09.622Z,3.60
2023-05-08T22:49:43.294Z,1.80
2023-05-08T22:52:14.513Z,1.60
2023-05-08T22:54:45.702Z,1.50
2023-05-08T22:57:16.776Z,14.20
2023-05-08T22:59:47.796Z,19.60
2023-05-08T23:02:18.851Z,6.80
2023-05-08T23:04:50.413Z,3.80
2023-05-08T23:07:21.899Z,2.70
2023-05-08T23:09:52.759Z,2.80
2023-05-08T23:12:23.829Z,2.40
2023-05-08T23:17:25.324Z,1.80
2023-05-08T23:19:56.650Z,1.80
2023-05-08T23:22:28.693Z,2.50
2023-05-08T23:25:00.011Z,2.10
2023-05-08T23:27:31.357Z,2.30
2023-05-08T23:30:02.660Z,1.90
2023-05-08T23:32:33.672Z,1.90
2023-05-08T23:35:05.012Z,1.70
2023-05-08T23:40:07.080Z,2.00
2023-05-08T23:42:38.326Z,1.70
2023-05-08T23:45:12.210Z,1.90
2023-05-08T23:47:43.532Z,1.90
2023-05-08T23:50:15.293Z,1.70
2023-05-08T23:52:46.419Z,1.80
2023-05-08T23:57:47.629Z,1.60
